Time;durP1;ratioP1;P1;durP2;ratioP2;P2;SDS_P1;SDS_P2;PMS_P1;PMS_P2;Temp;Humidity;BMP_temperature;BMP_pressure;BME280_temperature;BME280_humidity;BME280_pressure;Samples;Min_cycle;Max_cycle;Signal;HPM_P1;HPM_P2
2023/03/03 00:01:38;;;;;;;15.43;7.50;;;5.40;99.90;;;;;;4813488;29;20049;-61
2023/03/03 00:04:06;;;;;;;12.18;7.32;;;5.40;99.90;;;;;;4824020;29;20042;-61
2023/03/03 00:06:34;;;;;;;14.32;8.25;;;5.40;99.90;;;;;;4835273;29;20061;-61
2023/03/03 00:09:01;;;;;;;12.10;8.25;;;5.40;99.90;;;;;;4833829;29;20073;-60
2023/03/03 00:11:29;;;;;;;11.77;6.82;;;5.40;99.90;;;;;;4835264;29;20519;-61
2023/03/03 00:13:57;;;;;;;13.30;6.68;;;5.40;99.90;;;;;;4831853;29;20066;-60
2023/03/03 00:16:27;;;;;;;11.45;6.97;;;5.40;99.90;;;;;;4837177;29;20058;-61
2023/03/03 00:18:55;;;;;;;13.82;6.82;;;5.40;99.90;;;;;;4823889;29;20041;-61
2023/03/03 00:21:32;;;;;;;9.30;6.40;;;5.40;99.90;;;;;;4836004;29;20054;-60
2023/03/03 00:24:24;;;;;;;12.18;6.78;;;5.40;99.90;;;;;;4830445;29;20053;-60
2023/03/03 00:27:01;;;;;;;10.90;6.25;;;5.40;99.90;;;;;;4837894;29;20050;-60
2023/03/03 00:29:43;;;;;;;10.73;6.97;;;5.50;99.90;;;;;;4810331;29;20043;-60
2023/03/03 00:32:20;;;;;;;12.75;7.85;;;5.40;99.90;;;;;;4803311;29;20055;-60
2023/03/03 00:34:50;;;;;;;11.77;7.32;;;5.40;99.90;;;;;;4837076;29;20403;-61
2023/03/03 00:37:33;;;;;;;10.70;7.15;;;5.40;99.90;;;;;;4838405;29;20046;-60
2023/03/03 00:40:26;;;;;;;12.27;7.82;;;5.30;99.90;;;;;;4825241;29;20407;-59
2023/03/03 00:42:56;;;;;;;11.73;8.15;;;5.30;99.90;;;;;;4807727;29;20360;-60
2023/03/03 00:45:41;;;;;;;10.93;7.70;;;5.30;99.90;;;;;;4836971;29;20536;-60
2023/03/03 00:48:34;;;;;;;13.23;7.78;;;5.30;99.90;;;;;;4823128;29;20108;-60
2023/03/03 00:51:29;;;;;;;15.93;7.90;;;5.30;99.90;;;;;;4819344;29;20054;-61
2023/03/03 00:53:58;;;;;;;16.27;8.05;;;5.30;99.90;;;;;;4809781;29;20043;-60
2023/03/03 00:56:27;;;;;;;14.88;8.18;;;5.30;99.90;;;;;;4815684;29;20054;-61
2023/03/03 00:58:56;;;;;;;14.52;7.68;;;5.30;99.90;;;;;;4828972;29;20583;-60
2023/03/03 01:01:26;;;;;;;12.88;8.90;;;5.20;99.90;;;;;;4834665;29;20495;-60
2023/03/03 01:03:55;;;;;;;16.17;9.13;;;5.30;99.90;;;;;;4825570;29;20049;-60
2023/03/03 01:06:23;;;;;;;19.10;9.85;;;5.20;99.90;;;;;;4818860;29;20446;-60
2023/03/03 01:08:51;;;;;;;14.95;8.55;;;5.30;99.90;;;;;;4827852;29;20057;-60
2023/03/03 01:11:28;;;;;;;15.60;8.55;;;5.30;99.90;;;;;;4819497;29;20051;-60
2023/03/03 01:13:55;;;;;;;13.55;7.95;;;5.20;99.90;;;;;;4804449;29;20645;-60
2023/03/03 01:16:23;;;;;;;11.60;6.57;;;5.20;99.90;;;;;;4811150;29;20424;-60
2023/03/03 01:18:51;;;;;;;7.63;5.35;;;5.20;99.90;;;;;;4827822;29;20288;-60
2023/03/03 01:21:18;;;;;;;8.73;4.90;;;5.20;99.90;;;;;;4837709;29;20057;-59
2023/03/03 01:23:46;;;;;;;7.32;4.97;;;5.10;99.90;;;;;;4829458;29;20053;-59
2023/03/03 01:26:14;;;;;;;7.43;4.97;;;5.10;99.90;;;;;;4836531;29;20502;-60
2023/03/03 01:28:41;;;;;;;8.15;5.78;;;5.20;99.90;;;;;;4819452;29;20058;-59
2023/03/03 01:31:10;;;;;;;8.25;5.72;;;5.10;99.90;;;;;;4799993;29;20051;-59
2023/03/03 01:33:38;;;;;;;7.00;5.00;;;5.10;99.90;;;;;;4828277;29;20058;-59
2023/03/03 01:36:06;;;;;;;8.27;4.75;;;5.10;99.90;;;;;;4800085;29;20078;-58
2023/03/03 01:38:36;;;;;;;8.10;5.03;;;5.10;99.90;;;;;;4812225;29;20061;-60
2023/03/03 01:41:04;;;;;;;8.70;5.15;;;5.10;99.90;;;;;;4809420;29;20061;-60
2023/03/03 01:43:33;;;;;;;7.43;4.68;;;5.10;99.90;;;;;;4829154;29;20062;-60
2023/03/03 01:46:00;;;;;;;6.95;4.88;;;5.10;99.90;;;;;;4839961;29;20042;-60
2023/03/03 01:48:41;;;;;;;7.40;4.38;;;5.10;99.90;;;;;;4833517;29;20061;-60
2023/03/03 01:51:21;;;;;;;8.88;4.47;;;5.10;99.90;;;;;;4839831;29;20050;-60
2023/03/03 01:53:54;;;;;;;12.48;5.03;;;5.10;99.90;;;;;;4832028;29;20086;-60
2023/03/03 01:56:23;;;;;;;7.03;4.07;;;5.10;99.90;;;;;;4840933;29;20054;-60
2023/03/03 01:59:11;;;;;;;4.95;4.03;;;5.10;99.90;;;;;;4829406;29;20499;-60
2023/03/03 02:01:40;;;;;;;7.40;4.20;;;5.10;99.90;;;;;;4804093;29;20051;-60
2023/03/03 02:04:11;;;;;;;5.40;3.83;;;5.10;99.90;;;;;;4819300;29;20055;-61
2023/03/03 02:06:47;;;;;;;6.72;3.67;;;5.10;99.90;;;;;;4813036;29;20062;-60
2023/03/03 02:09:48;;;;;;;7.03;3.97;;;5.00;99.90;;;;;;4828299;29;20053;-60
2023/03/03 02:12:19;;;;;;;7.53;4.15;;;5.00;99.90;;;;;;4841715;29;20074;-60
2023/03/03 02:14:46;;;;;;;6.13;3.45;;;5.00;99.90;;;;;;4819232;29;20066;-60
2023/03/03 02:17:15;;;;;;;7.90;4.10;;;4.90;99.90;;;;;;4810207;29;20062;-59
2023/03/03 02:19:43;;;;;;;8.40;3.78;;;;;;;;;;4827462;29;20046;-60
2023/03/03 02:22:13;;;;;;;6.50;3.63;;;5.00;99.90;;;;;;4821025;29;20066;-59
2023/03/03 02:24:51;;;;;;;7.20;3.70;;;5.00;99.90;;;;;;4836197;29;20606;-59
2023/03/03 02:27:20;;;;;;;5.07;3.58;;;5.00;99.90;;;;;;4810822;29;20070;-59
2023/03/03 02:29:48;;;;;;;7.82;4.30;;;5.00;99.90;;;;;;4835174;29;20065;-59
2023/03/03 02:32:15;;;;;;;5.20;3.58;;;5.00;99.90;;;;;;4819553;29;20042;-59
2023/03/03 02:34:49;;;;;;;6.45;3.63;;;4.90;99.90;;;;;;4819715;29;20081;-61
2023/03/03 02:37:19;;;;;;;8.43;4.30;;;4.90;99.90;;;;;;4823958;29;20050;-60
2023/03/03 02:39:46;;;;;;;5.30;3.88;;;4.90;99.90;;;;;;4840685;29;20058;-60
2023/03/03 02:42:36;;;;;;;5.50;3.72;;;4.80;99.90;;;;;;4821008;29;20068;-60
2023/03/03 02:45:04;;;;;;;6.35;4.07;;;4.80;99.90;;;;;;4821869;29;20416;-60
2023/03/03 02:47:32;;;;;;;6.15;4.38;;;4.70;99.90;;;;;;4819621;29;20518;-60
2023/03/03 02:49:59;;;;;;;5.80;3.55;;;4.80;99.90;;;;;;4823781;29;20050;-60
2023/03/03 02:52:27;;;;;;;5.40;3.40;;;4.80;99.90;;;;;;4823050;29;20616;-60
2023/03/03 02:54:54;;;;;;;7.55;4.15;;;4.80;99.90;;;;;;4823823;29;20065;-61
2023/03/03 02:57:22;;;;;;;9.23;3.92;;;4.80;99.90;;;;;;4811148;29;20047;-60
2023/03/03 02:59:49;;;;;;;5.60;4.07;;;4.80;99.90;;;;;;4804202;29;20047;-60
2023/03/03 03:02:18;;;;;;;6.57;4.10;;;4.70;99.90;;;;;;4818399;29;20043;-58
2023/03/03 03:04:46;;;;;;;7.00;4.55;;;4.70;99.90;;;;;;4822830;29;20499;-59
2023/03/03 03:07:19;;;;;;;5.97;4.40;;;4.70;99.90;;;;;;4822528;29;20042;-60
2023/03/03 03:09:46;;;;;;;9.85;4.63;;;4.70;99.90;;;;;;4815352;29;20047;-60
2023/03/03 03:12:15;;;;;;;9.18;4.75;;;4.60;99.90;;;;;;4813895;29;20058;-59
2023/03/03 03:14:43;;;;;;;6.33;4.50;;;;;;;;;;4776092;29;1398051;-60
2023/03/03 03:17:11;;;;;;;7.85;4.75;;;4.60;99.90;;;;;;4817770;29;20555;-59
2023/03/03 03:19:40;;;;;;;8.02;5.25;;;4.60;99.90;;;;;;4821166;29;20050;-60
2023/03/03 03:22:07;;;;;;;9.80;6.30;;;4.60;99.90;;;;;;4822967;29;20051;-60
2023/03/03 03:24:35;;;;;;;12.43;5.90;;;4.60;99.90;;;;;;4823490;29;20043;-59
2023/03/03 03:27:07;;;;;;;11.50;6.07;;;4.60;99.90;;;;;;4823337;29;20414;-60
2023/03/03 03:29:35;;;;;;;10.52;6.50;;;4.50;99.90;;;;;;4823310;29;20047;-59
2023/03/03 03:32:04;;;;;;;9.45;6.20;;;4.50;99.90;;;;;;4821397;29;20049;-58
2023/03/03 03:34:32;;;;;;;10.68;5.70;;;4.50;99.90;;;;;;4823030;29;20053;-59
2023/03/03 03:37:00;;;;;;;13.73;6.82;;;4.50;99.90;;;;;;4823075;29;20455;-59
2023/03/03 03:39:28;;;;;;;13.32;7.03;;;4.50;99.90;;;;;;4823104;29;20395;-61
2023/03/03 03:41:56;;;;;;;9.15;6.68;;;4.50;99.90;;;;;;4819560;29;20049;-59
2023/03/03 03:44:24;;;;;;;10.88;7.32;;;4.50;99.90;;;;;;4822723;29;20057;-60
2023/03/03 03:46:53;;;;;;;11.00;6.47;;;4.50;99.90;;;;;;4815843;29;20054;-61
2023/03/03 03:49:20;;;;;;;12.50;7.32;;;4.60;99.90;;;;;;4804774;29;20664;-60
2023/03/03 03:51:50;;;;;;;12.45;7.97;;;4.60;99.90;;;;;;4805025;29;20132;-60
2023/03/03 03:54:20;;;;;;;15.63;7.82;;;4.60;99.90;;;;;;4822864;29;20415;-59
2023/03/03 03:56:49;;;;;;;13.50;7.88;;;4.60;99.90;;;;;;4821191;29;20046;-59
2023/03/03 03:59:17;;;;;;;12.25;7.78;;;4.60;99.90;;;;;;4819132;29;20043;-59
2023/03/03 04:01:44;;;;;;;14.27;7.22;;;4.60;99.90;;;;;;4817021;29;20046;-61
2023/03/03 04:04:12;;;;;;;12.57;7.63;;;4.50;99.90;;;;;;4816054;29;20055;-59
2023/03/03 04:06:40;;;;;;;10.70;7.70;;;4.60;99.90;;;;;;4822741;29;20050;-59
2023/03/03 04:09:07;;;;;;;11.45;7.38;;;4.50;99.90;;;;;;4819982;29;20049;-60
2023/03/03 04:11:35;;;;;;;11.30;7.95;;;4.50;99.90;;;;;;4816808;29;20519;-59
2023/03/03 04:14:05;;;;;;;13.50;7.57;;;4.50;99.90;;;;;;4822979;29;20058;-60
2023/03/03 04:16:34;;;;;;;17.95;7.82;;;4.60;99.90;;;;;;4821489;29;20057;-58
2023/03/03 04:19:02;;;;;;;11.10;7.28;;;4.60;99.90;;;;;;4819210;29;20047;-60
2023/03/03 04:21:32;;;;;;;11.38;7.45;;;4.60;99.90;;;;;;4817827;29;20528;-60
2023/03/03 04:24:01;;;;;;;10.60;7.20;;;4.60;99.90;;;;;;4822257;29;20072;-60
2023/03/03 04:26:30;;;;;;;13.65;6.93;;;4.50;99.90;;;;;;4822484;29;20050;-60
2023/03/03 04:29:00;;;;;;;8.45;5.97;;;4.60;99.90;;;;;;4822227;29;20072;-58
2023/03/03 04:31:29;;;;;;;11.80;6.32;;;4.50;99.90;;;;;;4822104;29;20055;-58
2023/03/03 04:33:57;;;;;;;8.85;6.57;;;4.50;99.90;;;;;;4822115;29;20085;-59
2023/03/03 04:36:26;;;;;;;10.25;6.63;;;4.50;99.90;;;;;;4822096;29;20530;-58
2023/03/03 04:38:53;;;;;;;11.75;6.68;;;4.50;99.90;;;;;;4822499;29;20049;-59
2023/03/03 04:41:21;;;;;;;13.63;8.55;;;4.50;99.90;;;;;;4822165;29;20065;-60
2023/03/03 04:43:49;;;;;;;10.75;7.30;;;4.50;99.90;;;;;;4822061;29;20050;-59
2023/03/03 04:46:17;;;;;;;11.32;7.13;;;4.50;99.90;;;;;;4822075;29;20063;-60
2023/03/03 04:48:44;;;;;;;11.65;7.15;;;4.40;99.90;;;;;;4823025;29;20062;-59
2023/03/03 04:51:15;;;;;;;13.90;7.88;;;4.40;99.90;;;;;;4822065;29;20422;-59
2023/03/03 04:53:44;;;;;;;19.02;10.13;;;4.40;99.90;;;;;;4821855;29;20438;-60
2023/03/03 04:56:13;;;;;;;18.67;9.47;;;4.40;99.90;;;;;;4822176;29;20058;-60
2023/03/03 04:58:41;;;;;;;16.13;8.88;;;4.40;99.90;;;;;;4805912;29;20058;-60
2023/03/03 05:01:13;;;;;;;16.08;9.77;;;4.30;99.90;;;;;;4818321;29;20055;-60
2023/03/03 05:03:41;;;;;;;19.20;9.68;;;4.30;99.90;;;;;;4817345;29;20054;-60
2023/03/03 05:06:09;;;;;;;20.77;11.05;;;4.40;99.90;;;;;;4822002;29;20038;-60
2023/03/03 05:08:36;;;;;;;19.30;10.95;;;4.30;99.90;;;;;;4822830;29;20054;-60
2023/03/03 05:11:04;;;;;;;22.88;12.25;;;4.30;99.90;;;;;;4822914;29;20403;-59
2023/03/03 05:13:32;;;;;;;22.65;12.43;;;4.30;99.90;;;;;;4826344;29;20484;-60
2023/03/03 05:15:59;;;;;;;22.13;11.02;;;4.30;99.90;;;;;;4822481;29;20054;-60
2023/03/03 05:18:27;;;;;;;23.13;12.65;;;4.30;99.90;;;;;;4822889;29;20061;-60
2023/03/03 05:20:55;;;;;;;23.00;11.45;;;4.30;99.90;;;;;;4822860;29;20058;-60
2023/03/03 05:23:23;;;;;;;21.60;11.43;;;4.30;99.90;;;;;;4822356;29;20706;-60
2023/03/03 05:25:51;;;;;;;22.65;12.27;;;4.40;99.90;;;;;;4822722;29;20050;-61
2023/03/03 05:28:18;;;;;;;20.38;10.93;;;4.30;99.90;;;;;;4823296;29;20387;-60
2023/03/03 05:30:46;;;;;;;20.10;10.70;;;4.30;99.90;;;;;;4822628;29;20135;-60
2023/03/03 05:33:15;;;;;;;21.23;11.68;;;4.30;99.90;;;;;;4822663;29;20419;-60
2023/03/03 05:35:43;;;;;;;25.33;11.93;;;4.30;99.90;;;;;;4822576;29;20042;-60
2023/03/03 05:38:11;;;;;;;22.50;11.40;;;4.30;99.90;;;;;;4820428;29;20054;-60
2023/03/03 05:40:39;;;;;;;22.27;12.15;;;4.30;99.90;;;;;;4804344;29;20488;-60
2023/03/03 05:43:06;;;;;;;23.73;11.10;;;4.30;99.90;;;;;;4820280;29;20507;-60
2023/03/03 05:45:34;;;;;;;18.80;10.13;;;;;;;;;;4822492;29;20046;-60
2023/03/03 05:48:03;;;;;;;20.50;10.80;;;4.30;99.90;;;;;;4814894;29;20080;-60
2023/03/03 05:50:31;;;;;;;19.33;10.57;;;4.30;99.90;;;;;;4817834;29;20058;-60
2023/03/03 05:52:59;;;;;;;17.65;9.40;;;4.30;99.90;;;;;;4819320;29;20302;-60
2023/03/03 05:55:27;;;;;;;17.90;9.43;;;4.20;99.90;;;;;;4819166;29;20090;-60
2023/03/03 05:57:55;;;;;;;18.63;9.52;;;4.30;99.90;;;;;;4826299;29;20061;-60
2023/03/03 06:00:22;;;;;;;19.98;10.00;;;4.30;99.90;;;;;;4836660;29;20406;-60
2023/03/03 06:02:50;;;;;;;21.17;11.10;;;4.30;99.90;;;;;;4805840;29;20408;-60
2023/03/03 06:05:18;;;;;;;23.23;10.98;;;4.20;99.90;;;;;;4798024;29;20058;-60
2023/03/03 06:07:46;;;;;;;21.23;10.27;;;4.20;99.90;;;;;;4811531;29;20054;-60
2023/03/03 06:10:13;;;;;;;19.38;10.07;;;4.20;99.90;;;;;;4836038;29;20049;-61
2023/03/03 06:12:45;;;;;;;17.63;9.18;;;4.20;99.90;;;;;;4827706;29;20054;-60
2023/03/03 06:15:12;;;;;;;14.80;8.98;;;4.20;99.90;;;;;;4837285;29;20057;-60
2023/03/03 06:17:40;;;;;;;14.73;7.97;;;4.20;99.90;;;;;;4827855;29;20058;-60
2023/03/03 06:20:09;;;;;;;19.98;9.02;;;4.10;99.90;;;;;;4797934;29;20050;-60
2023/03/03 06:22:36;;;;;;;15.00;8.50;;;4.10;99.90;;;;;;4819585;29;20053;-60
2023/03/03 06:25:04;;;;;;;18.75;9.52;;;4.10;99.90;;;;;;4834594;29;20453;-59
2023/03/03 06:27:32;;;;;;;16.17;9.30;;;4.10;99.90;;;;;;4809400;29;20065;-60
2023/03/03 06:30:00;;;;;;;18.23;9.48;;;4.10;99.90;;;;;;4821305;29;20483;-61
2023/03/03 06:32:28;;;;;;;22.00;10.35;;;4.10;99.90;;;;;;4823711;29;20482;-60
2023/03/03 06:34:55;;;;;;;20.13;10.57;;;4.10;99.90;;;;;;4804063;29;20499;-59
2023/03/03 06:37:23;;;;;;;19.92;10.70;;;4.10;99.90;;;;;;4808323;29;20050;-59
2023/03/03 06:39:51;;;;;;;20.70;11.30;;;4.10;99.90;;;;;;4840092;29;20133;-59
2023/03/03 06:42:19;;;;;;;22.50;11.60;;;4.00;99.90;;;;;;4828279;29;20612;-60
2023/03/03 06:44:47;;;;;;;24.00;11.80;;;4.00;99.90;;;;;;4813607;29;20058;-60
2023/03/03 06:47:15;;;;;;;24.23;12.27;;;4.00;99.90;;;;;;4816445;29;20061;-60
2023/03/03 06:49:45;;;;;;;20.83;9.73;;;4.00;99.90;;;;;;4817692;29;20406;-60
2023/03/03 06:52:19;;;;;;;25.02;11.60;;;4.00;99.90;;;;;;4820993;29;20403;-60
2023/03/03 06:54:47;;;;;;;26.25;12.52;;;4.10;99.90;;;;;;4836499;29;20065;-60
2023/03/03 06:57:29;;;;;;;23.98;12.75;;;4.00;99.90;;;;;;4804929;29;20244;-59
2023/03/03 07:00:25;;;;;;;26.30;13.50;;;4.00;99.90;;;;;;4810213;29;20054;-59
2023/03/03 07:03:11;;;;;;;25.13;12.13;;;4.00;99.90;;;;;;4808920;29;20057;-60
2023/03/03 07:05:38;;;;;;;23.90;12.00;;;4.00;99.90;;;;;;4818318;29;20058;-59
2023/03/03 07:08:13;;;;;;;27.20;12.65;;;4.00;99.90;;;;;;4829346;29;20054;-60
2023/03/03 07:10:42;;;;;;;25.60;13.45;;;3.90;99.90;;;;;;4840025;29;20402;-60
2023/03/03 07:13:24;;;;;;;28.80;13.38;;;3.90;99.90;;;;;;4824854;29;20046;-60
2023/03/03 07:15:54;;;;;;;22.67;12.30;;;4.00;99.90;;;;;;4801817;29;20053;-60
2023/03/03 07:18:53;;;;;;;23.30;12.32;;;3.90;99.90;;;;;;4813315;29;20061;-60
2023/03/03 07:21:25;;;;;;;25.45;12.40;;;3.90;99.90;;;;;;4803380;29;20051;-60
2023/03/03 07:23:53;;;;;;;29.65;14.00;;;3.90;99.90;;;;;;4830844;29;20057;-60
2023/03/03 07:26:29;;;;;;;23.58;12.38;;;3.90;99.90;;;;;;4815507;29;20057;-61
2023/03/03 07:29:15;;;;;;;31.50;14.32;;;3.90;99.90;;;;;;4833532;29;20065;-61
2023/03/03 07:31:46;;;;;;;25.75;13.30;;;3.90;99.90;;;;;;4820380;29;20415;-58
2023/03/03 07:34:23;;;;;;;25.40;12.27;;;3.90;99.90;;;;;;4812315;29;20419;-59
2023/03/03 07:36:58;;;;;;;29.23;14.80;;;3.90;99.90;;;;;;4808239;29;20054;-60
2023/03/03 07:39:37;;;;;;;29.13;13.75;;;3.90;99.90;;;;;;4815097;29;20137;-59
2023/03/03 07:42:19;;;;;;;34.33;12.88;;;3.90;99.90;;;;;;4823314;29;20062;-60
2023/03/03 07:44:57;;;;;;;28.10;13.20;;;3.90;99.90;;;;;;4835875;29;20062;-60
2023/03/03 07:47:36;;;;;;;29.92;13.40;;;3.90;99.90;;;;;;4838988;29;20046;-59
2023/03/03 07:50:17;;;;;;;27.98;13.73;;;3.90;99.90;;;;;;4813856;29;20077;-60
2023/03/03 07:52:55;;;;;;;30.85;13.43;;;3.90;99.90;;;;;;4823967;29;20045;-60
2023/03/03 07:55:32;;;;;;;26.63;12.45;;;3.90;99.90;;;;;;4838866;29;20395;-60
2023/03/03 07:58:40;;;;;;;27.67;12.35;;;4.00;99.90;;;;;;4838933;29;20427;-60
2023/03/03 08:01:33;;;;;;;24.98;11.90;;;4.00;99.90;;;;;;4824806;29;20062;-60
2023/03/03 08:04:01;;;;;;;28.98;13.52;;;4.00;99.90;;;;;;4814193;29;20058;-60
2023/03/03 08:06:34;;;;;;;24.80;12.57;;;4.00;99.90;;;;;;4799733;29;20046;-60
2023/03/03 08:09:11;;;;;;;23.98;11.57;;;4.00;99.90;;;;;;4831855;29;20054;-60
2023/03/03 08:12:09;;;;;;;19.65;10.27;;;4.10;99.90;;;;;;4821666;29;20411;-60
2023/03/03 08:14:37;;;;;;;23.02;10.98;;;4.10;99.90;;;;;;4833227;29;20076;-62
2023/03/03 08:17:23;;;;;;;28.17;12.43;;;4.10;99.90;;;;;;4801445;29;20058;-63
2023/03/03 08:19:53;;;;;;;24.10;10.70;;;4.10;99.90;;;;;;4811335;29;20047;-61
2023/03/03 08:22:30;;;;;;;19.73;10.48;;;4.00;99.90;;;;;;4807026;29;20068;-61
2023/03/03 08:24:57;;;;;;;24.30;11.13;;;4.00;99.90;;;;;;4837113;29;20058;-60
2023/03/03 08:27:25;;;;;;;23.45;11.15;;;4.00;99.90;;;;;;4825053;29;20064;-60
2023/03/03 08:29:53;;;;;;;24.20;11.95;;;4.10;99.90;;;;;;4817335;29;20058;-59
2023/03/03 08:32:23;;;;;;;27.00;12.70;;;4.20;99.90;;;;;;4809386;29;20041;-59
2023/03/03 08:34:51;;;;;;;30.88;13.02;;;;;;;;;;4802481;29;20046;-60
2023/03/03 08:37:19;;;;;;;21.65;10.98;;;4.20;99.90;;;;;;4803849;29;20525;-60
2023/03/03 08:39:46;;;;;;;19.75;9.93;;;4.20;99.90;;;;;;4807201;29;20407;-60
2023/03/03 08:42:14;;;;;;;17.73;9.20;;;4.20;99.90;;;;;;4812772;29;20053;-60
2023/03/03 08:44:42;;;;;;;18.98;8.90;;;4.20;99.90;;;;;;4807434;29;20058;-60
2023/03/03 08:47:10;;;;;;;13.93;6.97;;;4.30;99.90;;;;;;4801024;29;20057;-59
2023/03/03 08:49:38;;;;;;;12.00;6.50;;;4.30;99.90;;;;;;4827054;29;20815;-61
2023/03/03 08:52:06;;;;;;;23.08;6.38;;;4.30;99.90;;;;;;4808713;29;20042;-60
2023/03/03 08:54:34;;;;;;;9.93;6.18;;;4.30;99.90;;;;;;4817981;29;20050;-60
2023/03/03 08:57:01;;;;;;;8.25;5.35;;;4.40;99.90;;;;;;4807035;29;20055;-59
2023/03/03 08:59:29;;;;;;;7.13;4.45;;;4.40;99.90;;;;;;4821437;29;20550;-61
2023/03/03 09:01:57;;;;;;;8.57;4.78;;;4.40;99.90;;;;;;4813359;29;20056;-61
2023/03/03 09:04:24;;;;;;;8.00;5.20;;;4.40;99.90;;;;;;4817472;29;20506;-60
2023/03/03 09:06:52;;;;;;;8.30;4.80;;;4.40;99.90;;;;;;4816547;29;20054;-60
2023/03/03 09:09:20;;;;;;;7.93;4.95;;;4.40;99.90;;;;;;4815316;29;20510;-60
2023/03/03 09:11:47;;;;;;;7.35;4.28;;;4.50;99.90;;;;;;4807318;29;20410;-59
2023/03/03 09:14:17;;;;;;;10.65;4.43;;;4.50;99.90;;;;;;4830146;29;20061;-60
2023/03/03 09:16:51;;;;;;;9.00;4.40;;;4.60;99.90;;;;;;4824396;29;20058;-60
2023/03/03 09:19:28;;;;;;;5.63;2.97;;;4.60;99.90;;;;;;4808583;29;20496;-60
2023/03/03 09:22:01;;;;;;;4.85;3.22;;;4.70;99.90;;;;;;4814508;29;20051;-60
2023/03/03 09:24:30;;;;;;;3.67;2.70;;;4.70;99.90;;;;;;4813677;29;20418;-59
2023/03/03 09:26:58;;;;;;;3.00;2.28;;;4.70;99.90;;;;;;4804038;29;20070;-60
2023/03/03 09:29:29;;;;;;;4.60;1.75;;;4.80;99.90;;;;;;4817601;29;20062;-61
2023/03/03 09:31:59;;;;;;;5.60;2.15;;;4.80;99.90;;;;;;4813351;29;20065;-60
2023/03/03 09:34:38;;;;;;;2.25;1.27;;;4.80;99.90;;;;;;4812085;29;20526;-60
2023/03/03 09:37:22;;;;;;;3.65;1.52;;;4.90;99.90;;;;;;4815849;29;20046;-61
2023/03/03 09:39:54;;;;;;;4.55;1.45;;;4.90;99.90;;;;;;4800552;29;20062;-60
2023/03/03 09:42:37;;;;;;;1.63;1.00;;;5.00;99.90;;;;;;4807008;29;20403;-60
2023/03/03 09:45:23;;;;;;;1.70;1.25;;;5.00;99.90;;;;;;4828554;29;20046;-58
2023/03/03 09:48:16;;;;;;;1.67;1.00;;;5.10;99.90;;;;;;4815709;29;20059;-58
2023/03/03 09:50:51;;;;;;;4.55;1.55;;;5.10;99.90;;;;;;4809559;29;20073;-60
2023/03/03 09:53:51;;;;;;;1.48;1.17;;;5.20;99.90;;;;;;4818260;29;20055;-59
2023/03/03 09:56:41;;;;;;;1.55;1.05;;;5.20;99.90;;;;;;4812261;29;20054;-60
2023/03/03 09:59:14;;;;;;;2.03;1.60;;;5.30;99.90;;;;;;4834097;29;20065;-61
2023/03/03 10:02:12;;;;;;;28.02;8.27;;;5.30;99.90;;;;;;4819777;29;20050;-60
2023/03/03 10:04:42;;;;;;;3.38;1.35;;;4.70;99.90;;;;;;4822709;29;20050;-60
2023/03/03 10:07:29;;;;;;;1.70;1.27;;;5.40;99.90;;;;;;4821069;29;20077;-60
2023/03/03 10:09:57;;;;;;;1.05;0.93;;;5.30;99.90;;;;;;4840969;29;20054;-60
2023/03/03 10:12:30;;;;;;;1.55;0.90;;;5.30;99.90;;;;;;4821915;29;20049;-60
2023/03/03 10:15:26;;;;;;;1.38;0.90;;;5.40;99.90;;;;;;4809662;29;20059;-60
2023/03/03 10:18:28;;;;;;;0.63;0.60;;;5.40;99.90;;;;;;4824438;29;20518;-60
2023/03/03 10:21:18;;;;;;;0.60;0.60;;;5.30;99.90;;;;;;4826141;29;20061;-59
2023/03/03 10:24:14;;;;;;;2.33;1.05;;;5.30;99.90;;;;;;4823080;29;20395;-59
2023/03/03 10:26:49;;;;;;;3.97;1.70;;;5.30;99.90;;;;;;4820288;29;20050;-59
2023/03/03 10:30:16;;;;;;;2.95;1.23;;;5.30;99.90;;;;;;4814453;29;20039;-59
2023/03/03 10:33:17;;;;;;;3.43;1.30;;;5.30;99.90;;;;;;4813236;29;20068;-60
2023/03/03 10:36:13;;;;;;;2.03;1.40;;;5.40;99.90;;;;;;4805003;29;20057;-60
2023/03/03 10:38:55;;;;;;;2.67;1.58;;;5.40;99.90;;;;;;4803367;29;20054;-60
2023/03/03 10:41:42;;;;;;;2.17;1.50;;;5.40;99.90;;;;;;4803843;29;20047;-60
2023/03/03 10:44:15;;;;;;;2.17;1.30;;;5.50;99.90;;;;;;4818943;29;20058;-60
2023/03/03 10:47:00;;;;;;;4.00;1.88;;;5.50;99.90;;;;;;4803555;29;20735;-61
2023/03/03 10:49:38;;;;;;;2.53;1.77;;;5.50;99.90;;;;;;4807541;29;20049;-61
2023/03/03 10:52:30;;;;;;;3.58;1.90;;;5.40;99.90;;;;;;4831092;29;20061;-61
2023/03/03 10:55:28;;;;;;;2.15;1.83;;;5.40;99.90;;;;;;4821018;29;20536;-61
2023/03/03 10:58:10;;;;;;;3.88;1.80;;;5.40;99.90;;;;;;4821130;29;20054;-60
2023/03/03 11:00:51;;;;;;;5.28;2.10;;;5.40;99.90;;;;;;4821078;29;20050;-61
2023/03/03 11:03:52;;;;;;;4.72;2.03;;;5.40;99.90;;;;;;4816813;29;20073;-58
2023/03/03 11:06:46;;;;;;;3.58;2.20;;;5.30;99.90;;;;;;4811653;29;20061;-60
2023/03/03 11:09:32;;;;;;;3.20;2.35;;;5.40;99.90;;;;;;4823205;29;20047;-60
2023/03/03 11:12:02;;;;;;;4.20;2.05;;;5.40;99.90;;;;;;4822147;29;20056;-61
2023/03/03 11:14:46;;;;;;;2.53;1.58;;;5.30;99.90;;;;;;4809399;29;20062;-60
2023/03/03 11:17:47;;;;;;;3.53;2.03;;;5.40;99.90;;;;;;4809830;29;20050;-61
2023/03/03 11:20:29;;;;;;;2.92;2.00;;;5.40;99.90;;;;;;4817135;29;20628;-60
2023/03/03 11:23:39;;;;;;;4.05;2.00;;;5.40;99.90;;;;;;4819590;29;20050;-60
2023/03/03 11:26:14;;;;;;;3.85;2.13;;;5.50;99.90;;;;;;4827708;29;20054;-60
2023/03/03 11:29:03;;;;;;;3.38;2.15;;;5.50;99.90;;;;;;4833181;29;20539;-59
2023/03/03 11:31:40;;;;;;;2.55;1.98;;;5.50;99.90;;;;;;4823114;29;20046;-60
2023/03/03 11:34:23;;;;;;;5.78;2.55;;;5.50;99.90;;;;;;4823265;29;20046;-60
2023/03/03 11:36:56;;;;;;;2.90;2.10;;;5.60;99.90;;;;;;4805064;29;20408;-59
2023/03/03 11:39:26;;;;;;;2.65;2.13;;;5.60;99.90;;;;;;4814574;29;20046;-59
2023/03/03 11:41:54;;;;;;;4.50;2.25;;;5.60;99.90;;;;;;4820703;29;20469;-60
2023/03/03 11:44:44;;;;;;;4.25;2.40;;;5.60;99.90;;;;;;4831897;29;20046;-60
2023/03/03 11:47:28;;;;;;;3.15;2.10;;;5.60;99.90;;;;;;4808716;29;20424;-60
2023/03/03 11:50:03;;;;;;;7.25;2.67;;;5.70;99.90;;;;;;4817362;29;20066;-61
2023/03/03 11:52:55;;;;;;;7.25;2.53;;;5.70;99.90;;;;;;4821237;29;20482;-60
2023/03/03 11:55:32;;;;;;;4.45;2.38;;;5.70;99.90;;;;;;4817806;29;20050;-60
2023/03/03 11:58:15;;;;;;;4.47;1.95;;;5.80;99.90;;;;;;4825999;29;20050;-60
2023/03/03 12:00:57;;;;;;;4.53;2.08;;;5.80;99.90;;;;;;4812801;29;20062;-60
2023/03/03 12:03:39;;;;;;;2.50;2.05;;;5.90;99.90;;;;;;4814627;29;20507;-60
2023/03/03 12:06:15;;;;;;;2.83;1.90;;;6.00;99.90;;;;;;4810630;29;20521;-59
2023/03/03 12:09:11;;;;;;;4.90;1.90;;;6.10;99.90;;;;;;4826273;29;20042;-59
2023/03/03 12:11:46;;;;;;;2.38;1.73;;;6.10;99.90;;;;;;4822197;29;20054;-60
2023/03/03 12:14:39;;;;;;;5.15;2.05;;;6.20;99.90;;;;;;4821835;29;20062;-60
2023/03/03 12:17:31;;;;;;;4.40;1.98;;;6.30;99.90;;;;;;4807209;29;20046;-60
2023/03/03 12:20:18;;;;;;;3.25;2.13;;;6.30;99.90;;;;;;4813868;29;20502;-60
2023/03/03 12:23:01;;;;;;;3.83;1.60;;;6.30;99.90;;;;;;4824265;29;20058;-60
2023/03/03 12:25:36;;;;;;;3.40;1.80;;;6.30;99.90;;;;;;4825703;29;20065;-59
2023/03/03 12:28:10;;;;;;;2.90;2.22;;;6.30;99.90;;;;;;4825719;29;20538;-60
2023/03/03 12:31:01;;;;;;;3.17;2.15;;;6.40;99.90;;;;;;4832205;29;20058;-60
2023/03/03 12:34:18;;;;;;;3.92;1.80;;;6.40;99.90;;;;;;4820625;29;20062;-60
2023/03/03 12:36:54;;;;;;;5.15;2.20;;;6.40;99.90;;;;;;4841126;29;20053;-59
2023/03/03 12:39:40;;;;;;;4.35;2.45;;;6.30;99.90;;;;;;4817112;29;20069;-59
2023/03/03 12:42:39;;;;;;;3.88;2.38;;;6.30;99.90;;;;;;4812752;29;20495;-59
2023/03/03 12:45:43;;;;;;;3.92;2.40;;;6.20;99.90;;;;;;4805127;29;20391;-60
2023/03/03 12:48:26;;;;;;;5.90;3.25;;;6.10;99.90;;;;;;4822706;29;20076;-60
2023/03/03 12:50:59;;;;;;;7.72;4.28;;;6.00;99.90;;;;;;4832291;29;20053;-58
2023/03/03 12:53:44;;;;;;;5.68;2.63;;;6.00;99.90;;;;;;4817392;29;20411;-59
2023/03/03 12:56:14;;;;;;;3.35;2.38;;;6.00;99.90;;;;;;4819777;29;20057;-60
2023/03/03 12:59:00;;;;;;;4.13;2.60;;;6.00;99.90;;;;;;4829359;29;20591;-60
2023/03/03 13:01:59;;;;;;;3.75;2.63;;;6.00;99.90;;;;;;4836816;29;20050;-60
2023/03/03 13:04:34;;;;;;;2.83;2.13;;;6.00;99.90;;;;;;4833299;29;20065;-59
2023/03/03 13:07:18;;;;;;;4.68;2.40;;;6.00;99.90;;;;;;4816446;29;20390;-59
2023/03/03 13:10:33;;;;;;;5.15;2.33;;;6.00;99.90;;;;;;4801262;29;20385;-60
2023/03/03 13:13:23;;;;;;;2.15;1.80;;;6.10;99.90;;;;;;4828422;29;20057;-60
2023/03/03 13:16:11;;;;;;;2.00;1.30;;;6.10;99.90;;;;;;4836599;29;20061;-59
2023/03/03 13:19:14;;;;;;;3.55;1.98;;;6.20;99.90;;;;;;4831695;29;20055;-60
2023/03/03 13:21:44;;;;;;;1.80;1.30;;;6.10;99.90;;;;;;4812555;29;20050;-60
2023/03/03 13:24:25;;;;;;;1.52;1.20;;;6.20;99.90;;;;;;4832036;29;20053;-60
2023/03/03 13:26:57;;;;;;;1.88;1.15;;;6.20;99.90;;;;;;4837507;29;20053;-60
2023/03/03 13:29:27;;;;;;;2.53;1.10;;;6.20;99.90;;;;;;4837604;29;20053;-61
2023/03/03 13:31:59;;;;;;;2.65;1.67;;;6.20;99.90;;;;;;4835462;29;20050;-60